createdAt,value
2018-09-09T00:00:27.009Z,15.90
2018-09-09T00:02:55.467Z,12.93
2018-09-09T00:05:23.899Z,11.10
2018-09-09T00:07:52.322Z,10.43
2018-09-09T00:10:20.775Z,11.10
2018-09-09T00:12:49.216Z,13.23
2018-09-09T00:15:17.653Z,11.17
2018-09-09T00:17:46.103Z,14.80
2018-09-09T00:20:14.531Z,10.80
2018-09-09T00:22:42.975Z,11.67
2018-09-09T00:25:11.449Z,15.73
2018-09-09T00:27:39.906Z,10.73
2018-09-09T00:30:08.384Z,14.17
2018-09-09T00:32:36.828Z,13.40
2018-09-09T00:35:05.334Z,10.53
2018-09-09T00:37:33.746Z,10.90
2018-09-09T00:40:02.174Z,12.93
2018-09-09T00:42:30.612Z,12.73
2018-09-09T00:44:59.026Z,12.73
2018-09-09T00:47:27.477Z,9.43
2018-09-09T00:50:01.167Z,13.20
2018-09-09T00:52:34.966Z,14.47
2018-09-09T00:55:03.398Z,12.90
2018-09-09T00:57:31.854Z,16.93
2018-09-09T01:00:00.286Z,14.70
2018-09-09T01:02:28.706Z,13.57
2018-09-09T01:04:57.150Z,15.57
2018-09-09T01:07:25.594Z,13.53
2018-09-09T01:09:54.042Z,13.70
2018-09-09T01:12:22.457Z,15.20
2018-09-09T01:14:50.902Z,12.67
2018-09-09T01:17:19.351Z,10.43
2018-09-09T01:19:47.819Z,13.63
2018-09-09T01:22:16.241Z,14.27
2018-09-09T01:24:44.681Z,13.17
2018-09-09T01:27:13.099Z,11.83
2018-09-09T01:29:41.519Z,13.90
2018-09-09T01:32:09.961Z,11.97
2018-09-09T01:34:38.383Z,15.23
2018-09-09T01:37:06.815Z,12.53
2018-09-09T01:39:35.269Z,10.47
2018-09-09T01:42:03.684Z,11.33
2018-09-09T01:44:32.089Z,12.50
2018-09-09T01:47:00.549Z,10.13
2018-09-09T01:49:28.991Z,9.23
2018-09-09T01:51:57.419Z,10.03
2018-09-09T01:54:25.826Z,14.63
2018-09-09T01:56:54.247Z,12.37
2018-09-09T01:59:22.697Z,10.43
2018-09-09T02:01:51.140Z,11.23
2018-09-09T02:04:19.598Z,8.87
2018-09-09T02:06:48.036Z,8.33
2018-09-09T02:09:16.808Z,11.23
2018-09-09T02:11:45.278Z,8.60
2018-09-09T02:14:13.704Z,8.87
2018-09-09T02:16:42.206Z,11.33
2018-09-09T02:19:10.622Z,8.27
2018-09-09T02:21:39.074Z,9.37
2018-09-09T02:24:07.534Z,9.93
2018-09-09T02:26:36.001Z,12.07
2018-09-09T02:29:04.416Z,9.73
2018-09-09T02:31:32.877Z,12.10
2018-09-09T02:34:01.316Z,9.27
2018-09-09T02:36:29.746Z,12.20
2018-09-09T02:38:58.195Z,10.53
2018-09-09T02:41:26.626Z,15.03
2018-09-09T02:43:55.061Z,11.63
2018-09-09T02:46:23.512Z,8.90
2018-09-09T02:48:51.956Z,9.93
2018-09-09T02:51:20.392Z,11.27
2018-09-09T02:53:48.851Z,11.67
2018-09-09T02:56:17.295Z,9.43
2018-09-09T02:58:45.732Z,12.33
2018-09-09T03:01:14.140Z,8.57
2018-09-09T03:03:42.557Z,14.77
2018-09-09T03:06:10.963Z,12.33
2018-09-09T03:08:39.411Z,10.43
2018-09-09T03:11:14.212Z,11.50
2018-09-09T03:13:43.764Z,12.97
2018-09-09T03:16:12.305Z,10.10
2018-09-09T03:18:41.578Z,11.13
2018-09-09T03:21:10.033Z,10.87
2018-09-09T03:23:38.460Z,12.10
2018-09-09T03:26:06.910Z,11.03
2018-09-09T03:28:35.414Z,14.53
2018-09-09T03:31:03.839Z,13.13
2018-09-09T03:33:33.115Z,12.00
2018-09-09T03:36:01.818Z,9.97
2018-09-09T03:38:30.332Z,9.90
2018-09-09T03:40:58.750Z,13.23
2018-09-09T03:43:27.164Z,10.07
2018-09-09T03:45:55.605Z,9.37
2018-09-09T03:48:24.052Z,10.47
2018-09-09T03:50:52.482Z,11.43
2018-09-09T03:53:20.894Z,9.77
2018-09-09T03:55:49.338Z,16.83
2018-09-09T03:58:17.836Z,10.90
2018-09-09T04:00:46.281Z,9.00
2018-09-09T04:03:14.728Z,10.50
2018-09-09T04:05:43.166Z,11.53
2018-09-09T04:08:11.696Z,12.37
2018-09-09T04:10:40.126Z,13.77
2018-09-09T04:13:08.575Z,10.90
2018-09-09T04:15:37.084Z,9.47
2018-09-09T04:18:05.589Z,10.57
2018-09-09T04:20:34.270Z,10.20
2018-09-09T04:23:04.031Z,12.60
2018-09-09T04:25:32.601Z,11.53
2018-09-09T04:28:01.832Z,10.13
2018-09-09T04:30:30.304Z,13.53
2018-09-09T04:32:58.793Z,14.10
2018-09-09T04:35:27.215Z,13.83
2018-09-09T04:37:55.655Z,11.13
2018-09-09T04:40:24.110Z,9.07
2018-09-09T04:42:52.538Z,15.80
2018-09-09T04:45:20.990Z,12.60
2018-09-09T04:47:49.468Z,13.67
2018-09-09T04:50:17.938Z,9.57
2018-09-09T04:52:46.374Z,13.43
2018-09-09T04:55:14.831Z,12.23
2018-09-09T04:57:43.261Z,12.33
2018-09-09T05:00:11.698Z,13.80
2018-09-09T05:02:40.142Z,14.13
2018-09-09T05:05:08.609Z,11.77
2018-09-09T05:07:37.047Z,11.43
2018-09-09T05:10:05.505Z,10.17
2018-09-09T05:12:33.918Z,11.00
2018-09-09T05:15:02.351Z,15.80
2018-09-09T05:17:30.783Z,11.17
2018-09-09T05:19:59.215Z,15.93
2018-09-09T05:22:27.680Z,10.83
2018-09-09T05:24:56.137Z,16.73
2018-09-09T05:27:24.614Z,13.20
2018-09-09T05:29:53.037Z,14.33
2018-09-09T05:32:21.493Z,14.53
2018-09-09T05:34:49.952Z,12.23
2018-09-09T05:37:18.414Z,15.17
2018-09-09T05:39:46.898Z,12.43
2018-09-09T05:42:15.535Z,13.77
2018-09-09T05:44:44.249Z,13.90
2018-09-09T05:47:12.680Z,12.60
2018-09-09T05:49:41.144Z,15.93
2018-09-09T05:52:09.668Z,15.30
2018-09-09T05:54:38.126Z,12.10
2018-09-09T05:57:06.898Z,13.83
2018-09-09T05:59:35.516Z,13.57
2018-09-09T06:02:03.968Z,11.77
2018-09-09T06:04:32.405Z,10.73
2018-09-09T06:07:00.855Z,11.77
2018-09-09T06:09:29.302Z,13.27
2018-09-09T06:12:00.656Z,14.40
2018-09-09T06:14:29.489Z,12.20
2018-09-09T06:16:58.376Z,23.47
2018-09-09T06:19:27.995Z,19.87
2018-09-09T06:21:56.576Z,19.10
2018-09-09T06:24:25.032Z,18.43
2018-09-09T06:26:54.001Z,12.97
2018-09-09T06:29:22.530Z,12.13
2018-09-09T06:31:50.982Z,13.83
2018-09-09T06:34:19.437Z,11.03
2018-09-09T06:36:47.985Z,13.27
2018-09-09T06:39:16.480Z,12.17
2018-09-09T06:41:44.983Z,11.90
2018-09-09T06:44:13.566Z,11.80
2018-09-09T06:46:42.257Z,11.63
2018-09-09T06:49:10.852Z,12.07
2018-09-09T06:51:39.324Z,13.30
2018-09-09T06:54:07.808Z,14.00
2018-09-09T06:56:36.305Z,17.07
2018-09-09T06:59:04.799Z,11.43
2018-09-09T07:01:33.266Z,14.20
2018-09-09T07:04:01.725Z,12.43
2018-09-09T07:06:30.270Z,13.83
2018-09-09T07:08:58.767Z,14.70
2018-09-09T07:11:27.343Z,10.40
2018-09-09T07:13:55.678Z,14.17
2018-09-09T07:16:24.239Z,13.70
2018-09-09T07:18:52.734Z,14.40
2018-09-09T07:21:21.213Z,10.13
2018-09-09T07:23:49.740Z,11.30
2018-09-09T07:26:18.219Z,10.20
2018-09-09T07:28:46.675Z,13.93
2018-09-09T07:31:15.185Z,10.17
2018-09-09T07:33:43.664Z,14.00
2018-09-09T07:36:12.112Z,11.13
2018-09-09T07:38:40.558Z,12.80
2018-09-09T07:41:09.051Z,12.57
2018-09-09T07:43:37.478Z,8.83
2018-09-09T07:46:06.064Z,14.80
2018-09-09T07:48:34.553Z,13.43
2018-09-09T07:51:03.008Z,13.63
2018-09-09T07:53:31.476Z,11.30
2018-09-09T07:56:01.296Z,11.77
2018-09-09T07:58:29.830Z,10.80
2018-09-09T08:00:58.348Z,12.97
2018-09-09T08:03:26.844Z,11.17
2018-09-09T08:05:55.342Z,17.00
2018-09-09T08:08:23.796Z,13.83
2018-09-09T08:10:52.250Z,11.40
2018-09-09T08:13:20.722Z,14.00
2018-09-09T08:15:49.149Z,15.87
2018-09-09T08:18:17.674Z,11.67
2018-09-09T08:20:46.994Z,11.47
2018-09-09T08:23:15.444Z,10.67
2018-09-09T08:25:43.962Z,9.97
2018-09-09T08:28:12.400Z,9.60
2018-09-09T08:30:40.828Z,12.67
2018-09-09T08:33:09.364Z,11.03
2018-09-09T08:35:37.888Z,10.27
2018-09-09T08:38:06.486Z,10.63
2018-09-09T08:40:34.989Z,13.60
2018-09-09T08:43:03.485Z,12.23
2018-09-09T08:45:31.965Z,11.93
2018-09-09T08:48:00.385Z,8.83
2018-09-09T08:50:28.833Z,11.00
2018-09-09T08:52:57.245Z,9.13
2018-09-09T08:55:25.692Z,11.60
2018-09-09T08:57:54.159Z,6.43
2018-09-09T09:00:29.398Z,7.07
2018-09-09T09:02:57.844Z,10.97
2018-09-09T09:05:26.301Z,9.63
2018-09-09T09:07:54.799Z,9.50
2018-09-09T09:10:23.226Z,12.00
2018-09-09T09:12:51.649Z,8.07
2018-09-09T09:15:20.099Z,8.57
2018-09-09T09:17:48.541Z,10.87
2018-09-09T09:20:16.980Z,5.97
2018-09-09T09:22:45.403Z,8.47
2018-09-09T09:25:13.869Z,11.57
2018-09-09T09:27:42.428Z,7.27
2018-09-09T09:30:10.897Z,8.17
2018-09-09T09:32:43.579Z,7.03
2018-09-09T09:35:12.049Z,8.70
2018-09-09T09:37:41.056Z,14.57
2018-09-09T09:40:09.510Z,7.47
2018-09-09T09:42:37.935Z,10.00
2018-09-09T09:45:06.417Z,9.20
2018-09-09T09:47:34.886Z,8.27
2018-09-09T09:50:03.369Z,7.67
2018-09-09T09:52:31.792Z,10.43
2018-09-09T09:55:00.378Z,9.63
2018-09-09T09:57:28.764Z,8.67
2018-09-09T09:59:57.218Z,10.77
2018-09-09T10:02:25.672Z,8.63
2018-09-09T10:04:54.109Z,11.50
2018-09-09T10:07:22.539Z,7.80
2018-09-09T10:09:50.980Z,10.70
2018-09-09T10:12:19.414Z,11.23
2018-09-09T10:14:47.888Z,8.07
2018-09-09T10:17:16.364Z,12.77
2018-09-09T10:19:44.794Z,8.83
2018-09-09T10:22:13.206Z,9.00
2018-09-09T10:24:41.668Z,11.60
2018-09-09T10:27:10.105Z,10.90
2018-09-09T10:29:38.565Z,8.27
2018-09-09T10:32:07.009Z,10.57
2018-09-09T10:34:35.466Z,8.93
2018-09-09T10:37:03.994Z,8.50
2018-09-09T10:39:32.461Z,11.17
2018-09-09T10:42:01.004Z,8.60
2018-09-09T10:44:29.460Z,9.77
2018-09-09T10:46:57.922Z,7.57
2018-09-09T10:49:26.343Z,8.13
2018-09-09T10:51:54.809Z,8.13
2018-09-09T10:54:23.243Z,9.67
2018-09-09T10:56:51.705Z,6.20
2018-09-09T10:59:20.173Z,6.97
2018-09-09T11:01:48.619Z,8.70
2018-09-09T11:04:17.075Z,7.60
2018-09-09T11:06:45.993Z,9.53
2018-09-09T11:09:14.474Z,5.90
2018-09-09T11:11:43.017Z,7.60
2018-09-09T11:14:11.440Z,11.30
2018-09-09T11:16:39.933Z,7.70
2018-09-09T11:19:08.429Z,11.57
2018-09-09T11:21:36.961Z,10.13
2018-09-09T11:24:05.460Z,11.57
2018-09-09T11:26:33.869Z,5.17
2018-09-09T11:29:02.299Z,7.20
2018-09-09T11:31:30.773Z,6.77
2018-09-09T11:33:59.241Z,4.40
2018-09-09T11:36:27.700Z,6.87
2018-09-09T11:38:56.165Z,5.73
2018-09-09T11:41:24.642Z,5.07
2018-09-09T11:43:53.155Z,4.93
2018-09-09T11:46:21.572Z,8.73
2018-09-09T11:48:50.031Z,8.70
2018-09-09T11:51:18.475Z,5.97
2018-09-09T11:53:46.890Z,5.90
2018-09-09T11:56:15.414Z,4.57
2018-09-09T11:58:43.950Z,5.53
2018-09-09T12:01:12.374Z,4.60
2018-09-09T12:03:40.828Z,6.60
2018-09-09T12:06:09.294Z,4.10
2018-09-09T12:08:37.781Z,5.40
2018-09-09T12:11:06.551Z,5.20
2018-09-09T12:13:35.051Z,6.00
2018-09-09T12:16:03.475Z,10.50
2018-09-09T12:18:31.957Z,4.20
2018-09-09T12:21:00.471Z,4.70
2018-09-09T12:23:28.919Z,3.97
2018-09-09T12:25:57.434Z,2.80
2018-09-09T12:28:25.845Z,6.20
2018-09-09T12:30:54.311Z,3.70
2018-09-09T12:33:23.028Z,3.98
2018-09-09T12:35:51.866Z,3.72
2018-09-09T12:38:20.342Z,4.35
2018-09-09T12:40:48.803Z,4.20
2018-09-09T12:43:22.573Z,4.37
2018-09-09T12:45:56.529Z,5.30
2018-09-09T12:48:30.337Z,6.35
2018-09-09T12:50:59.022Z,3.80
2018-09-09T12:53:27.481Z,4.72
2018-09-09T12:55:55.941Z,5.50
2018-09-09T12:58:24.423Z,7.37
2018-09-09T13:00:52.875Z,8.77
2018-09-09T13:03:21.316Z,5.47
2018-09-09T13:05:49.804Z,3.17
2018-09-09T13:08:18.256Z,4.70
2018-09-09T13:10:46.736Z,2.70
2018-09-09T13:13:15.576Z,6.83
2018-09-09T13:15:44.078Z,4.03
2018-09-09T13:18:12.500Z,3.47
2018-09-09T13:20:41.002Z,3.80
2018-09-09T13:23:09.469Z,7.50
2018-09-09T13:25:37.954Z,2.92
2018-09-09T13:28:06.512Z,4.12
2018-09-09T13:30:35.220Z,5.97
2018-09-09T13:33:03.693Z,6.40
2018-09-09T13:35:32.125Z,2.95
2018-09-09T13:38:00.566Z,3.83
2018-09-09T13:40:29.014Z,4.97
2018-09-09T13:42:57.478Z,7.80
2018-09-09T13:45:26.013Z,4.15
2018-09-09T13:47:54.479Z,4.25
2018-09-09T13:50:22.934Z,3.45
2018-09-09T13:52:51.402Z,5.60
2018-09-09T13:55:19.880Z,5.33
2018-09-09T13:57:48.328Z,8.28
2018-09-09T14:00:16.756Z,8.65
2018-09-09T14:02:45.220Z,3.12
2018-09-09T14:05:13.754Z,4.28
2018-09-09T14:07:42.223Z,2.98
2018-09-09T14:10:10.670Z,6.92
2018-09-09T14:12:39.144Z,3.37
2018-09-09T14:15:08.118Z,4.67
2018-09-09T14:17:36.857Z,3.72
2018-09-09T14:20:05.358Z,7.70
2018-09-09T14:22:33.857Z,5.75
2018-09-09T14:25:02.253Z,8.10
2018-09-09T14:27:30.693Z,4.12
2018-09-09T14:29:59.125Z,3.58
2018-09-09T14:32:27.592Z,5.15
2018-09-09T14:34:56.016Z,3.85
2018-09-09T14:37:24.524Z,3.87
2018-09-09T14:39:52.959Z,4.35
2018-09-09T14:42:21.490Z,6.37
2018-09-09T14:44:49.944Z,4.65
2018-09-09T14:47:18.422Z,3.35
2018-09-09T14:49:46.879Z,6.15
2018-09-09T14:52:15.348Z,4.95
2018-09-09T14:54:43.911Z,4.97
2018-09-09T14:57:12.378Z,4.22
2018-09-09T14:59:40.828Z,5.47
2018-09-09T15:02:09.306Z,2.62
2018-09-09T15:04:37.790Z,3.75
2018-09-09T15:07:06.279Z,4.58
2018-09-09T15:09:34.770Z,3.67
2018-09-09T15:12:03.398Z,5.00
2018-09-09T15:14:31.852Z,2.77
2018-09-09T15:17:00.416Z,4.67
2018-09-09T15:19:28.954Z,8.73
2018-09-09T15:21:57.515Z,2.95
2018-09-09T15:24:26.157Z,5.78
2018-09-09T15:26:54.789Z,3.87
2018-09-09T15:29:23.329Z,3.50
2018-09-09T15:31:51.782Z,5.30
2018-09-09T15:34:20.459Z,4.37
2018-09-09T15:36:48.901Z,5.70
2018-09-09T15:39:17.374Z,4.47
2018-09-09T15:41:45.845Z,3.77
2018-09-09T15:44:14.353Z,4.67
2018-09-09T15:46:42.889Z,5.80
2018-09-09T15:49:11.419Z,4.37
2018-09-09T15:51:39.903Z,3.47
2018-09-09T15:54:08.385Z,3.20
2018-09-09T15:56:36.916Z,6.03
2018-09-09T15:59:05.392Z,3.70
2018-09-09T16:01:33.919Z,4.97
2018-09-09T16:04:02.432Z,7.57
2018-09-09T16:06:30.945Z,3.27
2018-09-09T16:08:59.449Z,6.93
2018-09-09T16:11:27.967Z,3.57
2018-09-09T16:13:56.554Z,5.73
2018-09-09T16:16:25.050Z,4.43
2018-09-09T16:18:53.489Z,3.13
2018-09-09T16:21:21.928Z,7.57
2018-09-09T16:23:50.385Z,13.30
2018-09-09T16:26:18.880Z,3.30
2018-09-09T16:28:47.494Z,3.97
2018-09-09T16:31:15.992Z,5.73
2018-09-09T16:33:44.469Z,3.27
2018-09-09T16:36:13.028Z,3.43
2018-09-09T16:38:41.696Z,2.33
2018-09-09T16:41:10.207Z,5.13
2018-09-09T16:43:38.766Z,2.70
2018-09-09T16:46:07.254Z,3.57
2018-09-09T16:48:36.041Z,5.53
2018-09-09T16:51:04.902Z,4.23
2018-09-09T16:53:33.398Z,4.20
2018-09-09T16:56:01.890Z,3.73
2018-09-09T16:58:30.379Z,4.17
2018-09-09T17:00:58.826Z,2.80
2018-09-09T17:03:27.992Z,3.30
2018-09-09T17:05:56.634Z,5.43
2018-09-09T17:08:25.288Z,6.13
2018-09-09T17:10:54.301Z,5.10
2018-09-09T17:13:22.916Z,5.70
2018-09-09T17:15:51.549Z,3.73
2018-09-09T17:18:20.144Z,4.20
2018-09-09T17:20:48.853Z,5.47
2018-09-09T17:23:17.368Z,2.23
2018-09-09T17:28:34.324Z,4.20
2018-09-09T17:31:03.405Z,8.03
2018-09-09T17:33:32.672Z,7.07
2018-09-09T17:36:01.796Z,5.37
2018-09-09T17:38:33.019Z,5.77
2018-09-09T17:41:01.559Z,4.70
2018-09-09T17:43:30.000Z,5.67
2018-09-09T17:45:58.457Z,4.23
2018-09-09T17:48:26.937Z,4.63
2018-09-09T17:50:55.391Z,4.80
2018-09-09T17:53:23.882Z,4.07
2018-09-09T17:55:52.338Z,5.43
2018-09-09T17:58:20.785Z,6.27
2018-09-09T18:00:49.333Z,4.77
2018-09-09T18:03:17.803Z,6.10
2018-09-09T18:05:46.395Z,4.10
2018-09-09T18:08:14.867Z,4.33
2018-09-09T18:10:43.395Z,5.70
2018-09-09T18:13:11.893Z,6.20
2018-09-09T18:15:40.379Z,5.73
2018-09-09T18:18:08.883Z,4.13
2018-09-09T18:20:37.515Z,7.60
2018-09-09T18:23:05.971Z,4.37
2018-09-09T18:25:34.470Z,7.70
2018-09-09T18:28:02.946Z,4.77
2018-09-09T18:30:31.404Z,5.00
2018-09-09T18:33:00.598Z,7.27
2018-09-09T18:35:29.077Z,4.37
2018-09-09T18:37:57.598Z,7.00
2018-09-09T18:40:26.075Z,6.63
2018-09-09T18:42:54.796Z,8.37
2018-09-09T18:45:23.276Z,5.67
2018-09-09T18:47:51.692Z,4.60
2018-09-09T18:50:20.150Z,8.50
2018-09-09T18:52:48.613Z,5.57
2018-09-09T18:55:17.079Z,8.73
2018-09-09T18:57:45.554Z,7.33
2018-09-09T19:00:14.093Z,9.20
2018-09-09T19:02:42.566Z,9.43
2018-09-09T19:05:11.036Z,6.77
2018-09-09T19:07:39.496Z,10.50
2018-09-09T19:10:08.016Z,8.47
2018-09-09T19:12:36.485Z,9.20
2018-09-09T19:15:05.399Z,11.23
2018-09-09T19:17:33.950Z,8.10
2018-09-09T19:20:02.377Z,10.73
2018-09-09T19:22:30.898Z,12.27
2018-09-09T19:24:59.326Z,10.53
2018-09-09T19:27:27.808Z,9.23
2018-09-09T19:29:56.310Z,7.93
2018-09-09T19:32:24.806Z,7.70
2018-09-09T19:34:53.507Z,10.30
2018-09-09T19:37:21.989Z,6.77
2018-09-09T19:39:50.483Z,8.50
2018-09-09T19:42:18.958Z,8.83
2018-09-09T19:44:47.407Z,12.67
2018-09-09T19:47:15.917Z,14.07
2018-09-09T19:49:44.460Z,8.83
2018-09-09T19:52:12.916Z,5.33
2018-09-09T19:54:41.431Z,7.43
2018-09-09T19:57:09.903Z,9.53
2018-09-09T19:59:38.403Z,7.27
2018-09-09T20:02:06.882Z,9.00
2018-09-09T20:04:35.370Z,8.87
2018-09-09T20:07:03.805Z,7.53
2018-09-09T20:09:32.268Z,8.30
2018-09-09T20:12:01.079Z,8.90
2018-09-09T20:14:29.550Z,5.27
2018-09-09T20:16:58.127Z,7.07
2018-09-09T20:19:26.582Z,8.57
2018-09-09T20:21:55.030Z,9.47
2018-09-09T20:24:23.482Z,9.23
2018-09-09T20:26:51.994Z,7.57
2018-09-09T20:29:20.490Z,9.43
2018-09-09T20:31:49.044Z,6.80
2018-09-09T20:34:17.558Z,9.53
2018-09-09T20:36:46.044Z,7.17
2018-09-09T20:39:14.486Z,8.40
2018-09-09T20:41:43.041Z,5.17
2018-09-09T20:44:11.519Z,7.37
2018-09-09T20:46:40.014Z,11.67
2018-09-09T20:49:08.483Z,6.53
2018-09-09T20:51:36.972Z,6.67
2018-09-09T20:54:05.434Z,7.63
2018-09-09T20:56:33.935Z,9.23
2018-09-09T20:59:02.379Z,6.93
2018-09-09T21:01:30.813Z,8.67
2018-09-09T21:03:59.265Z,6.93
2018-09-09T21:06:27.719Z,8.90
2018-09-09T21:08:56.169Z,5.97
2018-09-09T21:11:24.613Z,7.63
2018-09-09T21:13:53.067Z,7.27
2018-09-09T21:16:21.552Z,9.17
2018-09-09T21:18:49.983Z,11.10
2018-09-09T21:21:18.459Z,9.83
2018-09-09T21:23:46.893Z,10.63
2018-09-09T21:26:15.458Z,7.63
2018-09-09T21:28:43.851Z,10.03
2018-09-09T21:31:12.318Z,10.67
2018-09-09T21:33:40.786Z,8.70
2018-09-09T21:36:09.214Z,12.07
2018-09-09T21:38:37.888Z,8.67
2018-09-09T21:41:06.367Z,11.20
2018-09-09T21:43:34.792Z,9.93
2018-09-09T21:46:03.262Z,8.90
2018-09-09T21:48:31.696Z,12.70
2018-09-09T21:51:00.192Z,9.93
2018-09-09T21:53:28.680Z,10.67
2018-09-09T21:55:57.155Z,9.63
2018-09-09T21:58:25.564Z,14.40
2018-09-09T22:00:59.412Z,11.37
2018-09-09T22:03:27.859Z,9.43
2018-09-09T22:05:57.134Z,13.17
2018-09-09T22:08:25.708Z,10.23
2018-09-09T22:10:54.114Z,10.50
2018-09-09T22:13:22.580Z,11.60
2018-09-09T22:15:51.032Z,14.97
2018-09-09T22:18:19.468Z,12.07
2018-09-09T22:20:48.462Z,12.83
2018-09-09T22:23:16.954Z,9.57
2018-09-09T22:25:45.414Z,12.20
2018-09-09T22:28:13.857Z,17.67
2018-09-09T22:30:42.305Z,12.93
2018-09-09T22:33:10.743Z,15.33
2018-09-09T22:35:39.211Z,13.43
2018-09-09T22:38:07.821Z,18.83
2018-09-09T22:40:36.363Z,18.67
2018-09-09T22:43:05.080Z,13.30
2018-09-09T22:45:33.534Z,12.00
2018-09-09T22:48:02.018Z,16.70
2018-09-09T22:50:30.463Z,17.23
2018-09-09T22:52:58.884Z,17.13
2018-09-09T22:55:27.348Z,12.60
2018-09-09T22:57:55.762Z,17.23
2018-09-09T23:00:24.220Z,13.50
2018-09-09T23:02:52.701Z,15.10
2018-09-09T23:05:21.456Z,18.10
2018-09-09T23:07:49.868Z,14.13
2018-09-09T23:10:18.312Z,18.00
2018-09-09T23:12:46.751Z,18.47
2018-09-09T23:15:15.313Z,12.23
2018-09-09T23:17:43.744Z,17.43
2018-09-09T23:20:12.224Z,16.83
2018-09-09T23:22:40.656Z,19.50
2018-09-09T23:25:09.078Z,20.03
2018-09-09T23:27:37.550Z,16.33
2018-09-09T23:30:06.061Z,20.37
2018-09-09T23:32:34.502Z,21.83
2018-09-09T23:35:02.952Z,21.60
2018-09-09T23:37:31.396Z,18.17
2018-09-09T23:39:59.811Z,17.23
2018-09-09T23:42:28.251Z,18.83
2018-09-09T23:44:56.682Z,20.13
2018-09-09T23:47:25.149Z,20.93
2018-09-09T23:49:53.587Z,22.43
2018-09-09T23:52:22.030Z,22.60
2018-09-09T23:54:50.453Z,21.33
2018-09-09T23:57:18.926Z,23.40
2018-09-09T23:59:47.418Z,29.80
